createdAt,value
2023-02-24T00:00:38.714Z,26.95
2023-02-24T00:03:11.497Z,24.25
2023-02-24T00:05:42.963Z,23.95
2023-02-24T00:08:12.301Z,25.98
2023-02-24T00:10:42.345Z,24.75
2023-02-24T00:13:12.348Z,24.55
2023-02-24T00:15:42.018Z,26.30
2023-02-24T00:18:12.023Z,26.05
2023-02-24T00:20:39.533Z,25.58
2023-02-24T00:23:09.864Z,24.50
2023-02-24T00:25:39.661Z,25.83
2023-02-24T00:28:09.604Z,24.25
2023-02-24T00:30:39.474Z,22.95
2023-02-24T00:33:12.513Z,22.17
2023-02-24T00:35:42.554Z,22.58
2023-02-24T00:38:13.490Z,22.60
2023-02-24T00:45:10.646Z,22.58
2023-02-24T00:47:40.177Z,22.08
2023-02-24T00:50:11.900Z,22.40
2023-02-24T00:52:41.473Z,22.08
2023-02-24T00:55:15.303Z,21.13
2023-02-24T00:57:45.079Z,23.25
2023-02-24T01:00:16.694Z,22.20
2023-02-24T01:02:47.566Z,22.02
2023-02-24T01:05:17.627Z,23.73
2023-02-24T01:07:47.391Z,22.73
2023-02-24T01:10:18.448Z,23.83
2023-02-24T01:12:54.021Z,18.80
2023-02-24T01:15:23.452Z,17.33
2023-02-24T01:17:51.477Z,14.82
2023-02-24T01:20:20.191Z,15.68
2023-02-24T01:22:57.693Z,15.23
2023-02-24T01:25:26.915Z,13.15
2023-02-24T01:27:55.937Z,12.77
2023-02-24T01:30:23.480Z,12.15
2023-02-24T01:32:53.606Z,11.02
2023-02-24T01:35:25.681Z,10.77
2023-02-24T01:37:53.475Z,9.52
2023-02-24T01:40:26.295Z,11.32
2023-02-24T01:42:56.005Z,8.60
2023-02-24T01:45:30.160Z,7.10
2023-02-24T01:48:10.386Z,7.95
2023-02-24T01:50:39.362Z,8.52
2023-02-24T01:55:51.008Z,6.05
2023-02-24T01:58:28.736Z,6.18
2023-02-24T02:00:57.913Z,7.40
2023-02-24T02:03:35.255Z,6.53
2023-02-24T02:06:11.284Z,5.47
2023-02-24T02:08:45.252Z,6.60
2023-02-24T02:11:23.048Z,6.38
2023-02-24T02:13:55.256Z,7.28
2023-02-24T02:16:26.843Z,5.07
2023-02-24T02:19:33.512Z,4.68
2023-02-24T02:22:35.351Z,4.88
2023-02-24T02:26:05.939Z,5.45
2023-02-24T02:29:10.043Z,5.30
2023-02-24T02:32:35.955Z,5.75
2023-02-24T02:35:32.508Z,5.40
2023-02-24T02:38:27.740Z,6.47
2023-02-24T02:41:31.027Z,5.13
2023-02-24T02:44:21.638Z,4.35
2023-02-24T02:47:37.018Z,4.38
2023-02-24T02:50:55.000Z,4.53
2023-02-24T02:53:49.475Z,4.35
2023-02-24T02:56:34.633Z,3.35
2023-02-24T02:59:12.876Z,2.70
2023-02-24T03:04:23.295Z,3.20
2023-02-24T03:07:02.626Z,3.25
2023-02-24T03:09:45.762Z,2.90
2023-02-24T03:12:23.102Z,2.92
2023-02-24T03:15:04.702Z,3.08
2023-02-24T03:17:46.070Z,3.20
2023-02-24T03:21:07.796Z,3.17
2023-02-24T03:23:50.740Z,3.85
2023-02-24T03:26:53.241Z,3.45
2023-02-24T03:29:50.919Z,4.05
2023-02-24T03:32:55.010Z,3.70
2023-02-24T03:35:36.194Z,2.85
2023-02-24T03:38:06.917Z,3.78
2023-02-24T03:40:35.782Z,3.85
2023-02-24T03:43:19.665Z,3.72
2023-02-24T03:45:50.076Z,3.47
2023-02-24T03:48:21.940Z,4.40
2023-02-24T03:50:53.241Z,3.88
2023-02-24T03:53:48.625Z,4.13
2023-02-24T03:56:58.763Z,4.20
2023-02-24T03:59:57.748Z,4.35
2023-02-24T04:02:33.966Z,4.00
2023-02-24T04:05:21.934Z,3.78
2023-02-24T04:08:05.389Z,3.40
2023-02-24T04:11:23.029Z,3.92
2023-02-24T04:14:24.849Z,3.97
2023-02-24T04:17:30.600Z,4.07
2023-02-24T04:20:29.812Z,2.47
2023-02-24T04:23:15.484Z,3.15
2023-02-24T04:25:53.328Z,3.47
2023-02-24T04:28:27.459Z,3.63
2023-02-24T04:31:10.765Z,3.88
2023-02-24T04:33:41.080Z,3.90
2023-02-24T04:36:12.979Z,3.30
2023-02-24T04:38:43.201Z,3.28
2023-02-24T04:41:21.402Z,3.08
2023-02-24T04:43:52.153Z,3.95
2023-02-24T04:46:23.553Z,2.92
2023-02-24T04:48:53.701Z,3.03
2023-02-24T04:51:23.812Z,4.03
2023-02-24T04:53:55.471Z,2.92
2023-02-24T04:56:25.574Z,3.30
2023-02-24T04:58:56.077Z,2.95
2023-02-24T05:01:24.211Z,3.38
2023-02-24T05:03:52.654Z,2.85
2023-02-24T05:06:21.138Z,3.00
2023-02-24T05:08:48.410Z,2.88
2023-02-24T05:11:21.227Z,2.85
2023-02-24T05:13:48.483Z,2.85
2023-02-24T05:16:20.511Z,2.42
2023-02-24T05:18:50.588Z,2.75
2023-02-24T05:21:35.716Z,2.65
2023-02-24T05:24:08.572Z,2.90
2023-02-24T05:26:43.535Z,2.53
2023-02-24T05:29:12.583Z,3.33
2023-02-24T05:31:42.720Z,2.92
2023-02-24T05:34:17.238Z,1.98
2023-02-24T05:36:49.204Z,2.90
2023-02-24T05:39:19.840Z,4.82
2023-02-24T05:41:50.880Z,2.33
2023-02-24T05:44:22.814Z,2.05
2023-02-24T05:47:00.661Z,2.17
2023-02-24T05:49:34.475Z,1.90
2023-02-24T05:52:09.066Z,2.40
2023-02-24T05:54:45.242Z,2.10
2023-02-24T05:57:21.565Z,2.10
2023-02-24T05:59:51.153Z,1.80
2023-02-24T06:02:27.901Z,2.17
2023-02-24T06:04:57.112Z,1.60
2023-02-24T06:07:34.560Z,2.10
2023-02-24T06:10:10.042Z,2.65
2023-02-24T06:12:40.142Z,1.50
2023-02-24T06:15:10.718Z,2.28
2023-02-24T06:17:39.729Z,2.35
2023-02-24T06:20:15.615Z,2.55
2023-02-24T06:22:44.881Z,2.00
2023-02-24T06:25:14.632Z,2.10
2023-02-24T06:27:45.039Z,1.67
2023-02-24T06:30:15.254Z,1.95
2023-02-24T06:32:45.002Z,1.55
2023-02-24T06:35:15.996Z,2.03
2023-02-24T06:37:45.588Z,1.92
2023-02-24T06:40:18.288Z,1.83
2023-02-24T06:42:55.197Z,2.63
2023-02-24T06:45:26.343Z,1.55
2023-02-24T06:47:56.421Z,2.05
2023-02-24T06:50:23.878Z,2.05
2023-02-24T06:53:00.738Z,1.92
2023-02-24T06:55:30.744Z,1.77
2023-02-24T06:58:04.789Z,2.75
2023-02-24T07:00:41.667Z,2.22
2023-02-24T07:03:17.502Z,2.42
2023-02-24T07:05:54.444Z,1.80
2023-02-24T07:08:27.454Z,2.22
2023-02-24T07:10:59.956Z,2.67
2023-02-24T07:13:30.004Z,2.47
2023-02-24T07:16:11.847Z,1.70
2023-02-24T07:18:43.030Z,2.40
2023-02-24T07:21:13.103Z,2.47
2023-02-24T07:23:45.764Z,2.17
2023-02-24T07:26:23.212Z,2.08
2023-02-24T07:28:55.392Z,2.88
2023-02-24T07:31:26.433Z,2.80
2023-02-24T07:33:57.435Z,2.60
2023-02-24T07:36:30.385Z,2.70
2023-02-24T07:38:59.985Z,3.28
2023-02-24T07:41:31.362Z,3.20
2023-02-24T07:44:03.423Z,3.08
2023-02-24T07:46:33.559Z,3.22
2023-02-24T07:49:03.840Z,2.67
2023-02-24T07:51:33.640Z,2.17
2023-02-24T07:54:03.600Z,2.70
2023-02-24T07:56:34.208Z,2.58
2023-02-24T07:59:09.839Z,2.80
2023-02-24T08:01:49.723Z,2.40
2023-02-24T08:04:27.678Z,2.88
2023-02-24T08:07:02.936Z,2.85
2023-02-24T08:09:47.030Z,2.13
2023-02-24T08:12:22.889Z,2.35
2023-02-24T08:15:00.360Z,1.80
2023-02-24T08:17:30.486Z,2.47
2023-02-24T08:20:12.705Z,2.10
2023-02-24T08:22:52.254Z,2.38
2023-02-24T08:25:36.103Z,2.25
2023-02-24T08:28:15.155Z,2.25
2023-02-24T08:30:46.388Z,2.50
2023-02-24T08:33:23.370Z,2.38
2023-02-24T08:36:02.483Z,3.17
2023-02-24T08:38:44.705Z,2.47
2023-02-24T08:41:21.301Z,2.70
2023-02-24T08:43:51.643Z,2.72
2023-02-24T08:46:36.969Z,3.08
2023-02-24T08:49:10.970Z,3.00
2023-02-24T08:51:44.113Z,3.28
2023-02-24T08:54:32.073Z,2.70
2023-02-24T08:57:08.254Z,2.90
2023-02-24T08:59:38.121Z,2.15
2023-02-24T09:02:23.524Z,2.38
2023-02-24T09:05:04.771Z,2.95
2023-02-24T09:07:41.617Z,4.47
2023-02-24T09:10:19.201Z,3.45
2023-02-24T09:12:49.451Z,3.75
2023-02-24T09:15:20.683Z,2.97
2023-02-24T09:17:51.078Z,2.97
2023-02-24T09:20:27.649Z,3.13
2023-02-24T09:23:07.768Z,3.25
2023-02-24T09:25:49.482Z,2.70
2023-02-24T09:28:32.821Z,2.72
2023-02-24T09:31:04.989Z,2.80
2023-02-24T09:33:42.039Z,2.90
2023-02-24T09:36:30.232Z,3.00
2023-02-24T09:39:01.535Z,2.30
2023-02-24T09:41:54.674Z,2.63
2023-02-24T09:44:48.333Z,2.50
2023-02-24T09:47:57.952Z,2.00
2023-02-24T09:51:02.808Z,3.10
2023-02-24T09:53:41.944Z,3.10
2023-02-24T09:56:42.584Z,1.88
2023-02-24T09:59:51.075Z,2.70
2023-02-24T10:03:00.191Z,2.20
2023-02-24T10:06:15.038Z,2.17
2023-02-24T10:09:11.832Z,2.30
2023-02-24T10:11:55.653Z,2.83
2023-02-24T10:14:43.764Z,2.40
2023-02-24T10:17:40.352Z,3.73
2023-02-24T10:20:40.076Z,2.08
2023-02-24T10:23:34.425Z,1.40
2023-02-24T10:26:34.840Z,1.60
2023-02-24T10:29:33.434Z,1.88
2023-02-24T10:32:53.709Z,3.13
2023-02-24T10:35:26.192Z,1.30
2023-02-24T10:38:05.300Z,1.23
2023-02-24T10:40:56.801Z,1.17
2023-02-24T10:43:30.675Z,1.48
2023-02-24T10:46:17.539Z,1.42
2023-02-24T10:49:00.645Z,1.45
2023-02-24T10:51:42.027Z,2.15
2023-02-24T10:54:44.950Z,2.65
2023-02-24T10:57:36.707Z,1.70
2023-02-24T11:00:32.857Z,1.30
2023-02-24T11:03:22.065Z,2.35
2023-02-24T11:06:04.059Z,1.92
2023-02-24T11:08:39.958Z,1.95
2023-02-24T11:11:30.981Z,1.50
2023-02-24T11:14:23.935Z,2.13
2023-02-24T11:17:14.677Z,2.10
2023-02-24T11:19:55.281Z,1.80
2023-02-24T11:22:41.630Z,2.15
2023-02-24T11:25:42.009Z,2.20
2023-02-24T11:28:54.100Z,1.90
2023-02-24T11:31:42.815Z,2.10
2023-02-24T11:34:54.068Z,2.58
2023-02-24T11:38:09.716Z,1.88
2023-02-24T11:40:53.407Z,1.85
2023-02-24T11:43:33.525Z,1.77
2023-02-24T11:46:39.981Z,2.10
2023-02-24T11:49:47.174Z,1.88
2023-02-24T11:52:33.482Z,1.80
2023-02-24T11:55:42.616Z,2.15
2023-02-24T11:58:46.577Z,1.52
2023-02-24T12:02:00.296Z,2.03
2023-02-24T12:04:51.063Z,1.88
2023-02-24T12:07:48.712Z,2.58
2023-02-24T12:10:28.304Z,2.92
2023-02-24T12:13:51.382Z,1.90
2023-02-24T12:16:53.354Z,2.30
2023-02-24T12:19:44.399Z,2.10
2023-02-24T12:22:18.070Z,1.60
2023-02-24T12:24:52.789Z,2.33
2023-02-24T12:27:42.400Z,2.22
2023-02-24T12:31:12.461Z,3.10
2023-02-24T12:34:12.189Z,2.55
2023-02-24T12:37:39.521Z,2.92
2023-02-24T12:41:26.669Z,2.63
2023-02-24T12:45:17.973Z,2.63
2023-02-24T12:48:15.455Z,2.88
2023-02-24T12:51:09.529Z,3.03
2023-02-24T12:54:05.011Z,3.30
2023-02-24T12:57:13.534Z,3.40
2023-02-24T12:59:44.382Z,3.33
2023-02-24T13:02:40.473Z,3.13
2023-02-24T13:05:53.616Z,2.35
2023-02-24T13:09:02.469Z,3.25
2023-02-24T13:12:15.704Z,3.10
2023-02-24T13:14:50.350Z,2.80
2023-02-24T13:17:27.148Z,3.00
2023-02-24T13:19:57.609Z,2.63
2023-02-24T13:22:33.083Z,2.70
2023-02-24T13:25:09.172Z,2.85
2023-02-24T13:27:43.193Z,2.38
2023-02-24T13:30:15.864Z,2.10
2023-02-24T13:33:01.203Z,2.42
2023-02-24T13:35:37.352Z,2.65
2023-02-24T13:38:23.185Z,2.65
2023-02-24T13:40:53.412Z,2.53
2023-02-24T13:43:30.922Z,2.75
2023-02-24T13:46:18.549Z,2.13
2023-02-24T13:49:51.033Z,3.03
2023-02-24T13:53:09.383Z,2.67
2023-02-24T13:56:39.784Z,2.72
2023-02-24T13:59:36.980Z,3.20
2023-02-24T14:02:22.511Z,2.28
2023-02-24T14:05:00.341Z,2.10
2023-02-24T14:07:39.770Z,3.00
2023-02-24T14:10:25.294Z,2.20
2023-02-24T14:13:22.368Z,2.80
2023-02-24T14:15:53.515Z,2.55
2023-02-24T14:18:29.857Z,2.13
2023-02-24T14:20:59.991Z,2.30
2023-02-24T14:23:34.759Z,2.67
2023-02-24T14:26:18.702Z,2.25
2023-02-24T14:29:03.402Z,2.00
2023-02-24T14:31:35.065Z,2.75
2023-02-24T14:34:09.226Z,2.22
2023-02-24T14:36:46.296Z,2.50
2023-02-24T14:39:21.032Z,2.80
2023-02-24T14:42:11.014Z,2.58
2023-02-24T14:44:52.052Z,2.35
2023-02-24T14:47:29.054Z,2.28
2023-02-24T14:50:05.567Z,2.28
2023-02-24T14:53:05.575Z,2.42
2023-02-24T14:55:47.064Z,2.15
2023-02-24T14:58:57.715Z,2.10
2023-02-24T15:04:37.633Z,1.83
2023-02-24T15:07:28.992Z,1.98
2023-02-24T15:10:02.726Z,2.22
2023-02-24T15:12:57.436Z,1.75
2023-02-24T15:15:38.577Z,2.17
2023-02-24T15:18:29.713Z,2.53
2023-02-24T15:21:08.049Z,2.85
2023-02-24T15:23:39.062Z,2.58
2023-02-24T15:26:33.197Z,2.97
2023-02-24T15:29:26.798Z,2.85
2023-02-24T15:32:01.054Z,2.85
2023-02-24T15:34:36.944Z,2.80
2023-02-24T15:37:42.412Z,3.15
2023-02-24T15:40:25.940Z,3.00
2023-02-24T15:43:11.857Z,3.17
2023-02-24T15:45:42.053Z,3.67
2023-02-24T15:48:26.856Z,3.67
2023-02-24T15:51:06.037Z,3.72
2023-02-24T15:53:36.153Z,4.15
2023-02-24T15:56:06.239Z,4.10
2023-02-24T15:58:41.461Z,3.70
2023-02-24T16:06:21.678Z,3.92
2023-02-24T16:08:58.039Z,4.13
2023-02-24T16:11:39.854Z,3.92
2023-02-24T16:14:18.075Z,4.28
2023-02-24T16:16:48.337Z,4.00
2023-02-24T16:19:18.475Z,4.28
2023-02-24T16:21:48.552Z,3.58
2023-02-24T16:24:21.177Z,3.85
2023-02-24T16:26:51.640Z,4.97
2023-02-24T16:29:21.728Z,5.05
2023-02-24T16:31:52.022Z,4.25
2023-02-24T16:34:22.277Z,5.05
2023-02-24T16:36:52.328Z,4.95
2023-02-24T16:39:22.439Z,5.57
2023-02-24T16:41:52.505Z,6.18
2023-02-24T16:44:23.468Z,5.72
2023-02-24T16:46:53.536Z,6.30
2023-02-24T16:49:24.151Z,6.53
2023-02-24T16:51:57.215Z,6.28
2023-02-24T16:54:29.348Z,6.85
2023-02-24T16:56:59.604Z,7.07
2023-02-24T16:59:29.659Z,6.85
2023-02-24T17:01:59.787Z,7.13
2023-02-24T17:04:32.181Z,7.15
2023-02-24T17:07:02.397Z,7.20
2023-02-24T17:09:33.651Z,7.80
2023-02-24T17:12:04.168Z,8.65
2023-02-24T17:14:34.437Z,8.60
2023-02-24T17:17:04.714Z,8.55
2023-02-24T17:19:32.955Z,9.57
2023-02-24T17:22:01.351Z,9.65
2023-02-24T17:24:30.008Z,9.20
2023-02-24T17:26:59.960Z,10.38
2023-02-24T17:29:29.617Z,9.02
2023-02-24T17:31:59.744Z,10.02
2023-02-24T17:34:29.971Z,10.18
2023-02-24T17:37:00.018Z,11.02
2023-02-24T17:39:30.196Z,11.73
2023-02-24T17:42:00.325Z,10.73
2023-02-24T17:44:30.371Z,11.25
2023-02-24T17:47:00.359Z,12.13
2023-02-24T17:49:30.395Z,11.77
2023-02-24T17:52:00.405Z,11.88
2023-02-24T17:54:30.619Z,13.32
2023-02-24T17:57:00.729Z,13.55
2023-02-24T17:59:30.797Z,13.65
2023-02-24T18:02:02.396Z,13.38
2023-02-24T18:04:32.614Z,12.95
2023-02-24T18:07:02.734Z,13.60
2023-02-24T18:09:32.949Z,13.65
2023-02-24T18:12:05.081Z,13.55
2023-02-24T18:14:35.463Z,14.52
2023-02-24T18:17:05.516Z,15.02
2023-02-24T18:19:35.597Z,15.93
2023-02-24T18:22:05.922Z,15.32
2023-02-24T18:24:39.337Z,15.38
2023-02-24T18:27:09.504Z,15.73
2023-02-24T18:29:39.640Z,16.08
2023-02-24T18:32:10.794Z,16.90
2023-02-24T18:34:40.933Z,14.35
2023-02-24T18:37:11.091Z,14.93
2023-02-24T18:39:41.205Z,15.18
2023-02-24T18:42:15.141Z,13.98
2023-02-24T18:44:45.261Z,15.63
2023-02-24T18:47:13.652Z,16.58
2023-02-24T18:49:42.001Z,15.93
2023-02-24T18:52:11.846Z,15.98
2023-02-24T18:54:39.675Z,16.05
2023-02-24T18:57:07.464Z,16.23
2023-02-24T18:59:35.822Z,16.30
2023-02-24T19:02:04.261Z,14.80
2023-02-24T19:04:32.793Z,16.58
2023-02-24T19:07:01.416Z,15.90
2023-02-24T19:09:29.518Z,15.75
2023-02-24T19:11:59.136Z,15.68
2023-02-24T19:14:28.254Z,14.98
2023-02-24T19:16:55.686Z,15.93
2023-02-24T19:19:24.688Z,15.50
2023-02-24T19:21:52.741Z,15.90
2023-02-24T19:24:21.858Z,16.85
2023-02-24T19:26:52.653Z,16.27
2023-02-24T19:29:22.444Z,16.98
2023-02-24T19:31:54.324Z,16.20
2023-02-24T19:34:24.653Z,15.88
2023-02-24T19:36:54.429Z,16.15
2023-02-24T19:39:24.412Z,16.40
2023-02-24T19:41:54.937Z,16.40
2023-02-24T19:44:25.209Z,17.15
2023-02-24T19:46:55.238Z,17.67
2023-02-24T19:49:25.997Z,16.77
2023-02-24T19:51:59.300Z,17.83
2023-02-24T19:54:29.046Z,16.63
2023-02-24T19:57:00.353Z,17.35
2023-02-24T19:59:29.185Z,18.30
2023-02-24T20:01:59.317Z,18.17
2023-02-24T20:04:29.175Z,18.08
2023-02-24T20:06:59.315Z,18.20
2023-02-24T20:09:29.105Z,16.60
2023-02-24T20:12:00.772Z,18.10
2023-02-24T20:14:30.875Z,17.90
2023-02-24T20:17:00.835Z,18.52
2023-02-24T20:19:29.108Z,17.80
2023-02-24T20:21:57.483Z,18.75
2023-02-24T20:24:27.088Z,18.73
2023-02-24T20:26:54.419Z,18.98
2023-02-24T20:29:23.054Z,17.60
2023-02-24T20:31:51.469Z,17.75
2023-02-24T20:34:19.648Z,19.42
2023-02-24T20:36:48.211Z,19.52
2023-02-24T20:39:16.659Z,19.20
2023-02-24T20:41:45.624Z,19.25
2023-02-24T20:44:13.326Z,19.58
2023-02-24T20:46:41.920Z,20.00
2023-02-24T20:49:15.040Z,17.20
2023-02-24T20:51:45.203Z,20.48
2023-02-24T20:54:16.785Z,19.63
2023-02-24T20:56:46.829Z,20.30
2023-02-24T20:59:22.045Z,19.67
2023-02-24T21:01:51.761Z,20.50
2023-02-24T21:04:22.116Z,19.23
2023-02-24T21:06:52.100Z,20.42
2023-02-24T21:09:22.341Z,20.58
2023-02-24T21:11:51.922Z,19.67
2023-02-24T21:14:23.017Z,19.70
2023-02-24T21:16:53.037Z,19.77
2023-02-24T21:19:21.539Z,19.77
2023-02-24T21:21:49.958Z,18.98
2023-02-24T21:24:18.443Z,21.33
2023-02-24T21:26:47.545Z,21.52
2023-02-24T21:29:15.261Z,20.17
2023-02-24T21:31:44.055Z,19.25
2023-02-24T21:34:12.322Z,20.90
2023-02-24T21:36:40.495Z,19.08
2023-02-24T21:39:14.646Z,19.10
2023-02-24T21:41:45.375Z,19.33
2023-02-24T21:44:15.695Z,18.02
2023-02-24T21:46:45.828Z,20.00
2023-02-24T21:49:18.317Z,21.52
2023-02-24T21:51:51.624Z,20.00
2023-02-24T21:54:22.131Z,20.33
2023-02-24T21:56:52.594Z,19.92
2023-02-24T21:59:22.937Z,18.40
2023-02-24T22:01:54.313Z,21.58
2023-02-24T22:04:24.568Z,18.35
2023-02-24T22:06:54.747Z,19.05
2023-02-24T22:09:25.632Z,18.13
2023-02-24T22:11:53.303Z,18.63
2023-02-24T22:14:21.441Z,19.02
2023-02-24T22:16:51.551Z,18.48
2023-02-24T22:19:21.315Z,17.15
2023-02-24T22:21:51.409Z,16.38
2023-02-24T22:24:21.137Z,16.45
2023-02-24T22:26:51.160Z,15.98
2023-02-24T22:29:21.299Z,14.73
2023-02-24T22:31:51.290Z,13.30
2023-02-24T22:34:21.064Z,14.32
2023-02-24T22:36:50.870Z,13.73
2023-02-24T22:39:20.783Z,12.27
2023-02-24T22:41:52.287Z,13.77
2023-02-24T22:44:22.324Z,12.35
2023-02-24T22:46:52.376Z,13.13
2023-02-24T22:49:22.242Z,13.13
2023-02-24T22:51:51.917Z,12.73
2023-02-24T22:54:21.936Z,11.35
2023-02-24T22:56:55.998Z,12.35
2023-02-24T22:59:24.571Z,10.70
2023-02-24T23:01:51.782Z,10.23
2023-02-24T23:04:21.465Z,9.70
2023-02-24T23:06:53.588Z,10.98
2023-02-24T23:09:21.916Z,9.25
2023-02-24T23:11:51.870Z,9.07
2023-02-24T23:14:20.707Z,7.60
2023-02-24T23:16:55.608Z,6.80
2023-02-24T23:19:25.973Z,6.20
2023-02-24T23:21:56.505Z,5.78
2023-02-24T23:24:26.518Z,6.18
2023-02-24T23:26:57.732Z,5.07
2023-02-24T23:29:28.044Z,4.85
2023-02-24T23:31:59.235Z,4.63
2023-02-24T23:34:29.301Z,4.50
2023-02-24T23:36:59.283Z,4.82
2023-02-24T23:39:29.357Z,4.47
2023-02-24T23:41:59.277Z,4.10
2023-02-24T23:44:29.036Z,4.53
2023-02-24T23:46:59.782Z,3.78
2023-02-24T23:49:39.251Z,3.60
2023-02-24T23:52:13.826Z,3.33
2023-02-24T23:54:42.421Z,3.60
2023-02-24T23:57:11.548Z,3.55
2023-02-24T23:59:39.448Z,3.65
